createdAt,value
2018-08-18T00:00:49.485Z,0
2018-08-18T00:02:05.344Z,0
2018-08-18T00:03:21.269Z,0
2018-08-18T00:04:37.170Z,0
2018-08-18T00:05:53.097Z,0
2018-08-18T00:07:09.035Z,0
2018-08-18T00:08:24.896Z,0
2018-08-18T00:09:40.790Z,0
2018-08-18T00:10:56.739Z,0
2018-08-18T00:12:12.634Z,0
2018-08-18T00:13:28.559Z,0
2018-08-18T00:14:44.452Z,0
2018-08-18T00:16:00.424Z,0
2018-08-18T00:17:16.335Z,0
2018-08-18T00:18:32.244Z,0
2018-08-18T00:19:48.136Z,0
2018-08-18T00:21:04.090Z,0
2018-08-18T00:22:19.993Z,0
2018-08-18T00:23:35.898Z,0
2018-08-18T00:24:51.757Z,0
2018-08-18T00:26:07.675Z,0
2018-08-18T00:27:23.617Z,0
2018-08-18T00:28:39.534Z,0
2018-08-18T00:29:55.434Z,0
2018-08-18T00:31:11.469Z,0
2018-08-18T00:32:27.354Z,0
2018-08-18T00:33:43.268Z,0
2018-08-18T00:34:59.162Z,0
2018-08-18T00:36:15.102Z,0
2018-08-18T00:37:31.121Z,0
2018-08-18T00:38:47.030Z,0
2018-08-18T00:40:02.928Z,0
2018-08-18T00:41:18.830Z,0
2018-08-18T00:42:34.715Z,0
2018-08-18T00:43:50.606Z,0
2018-08-18T00:45:07.238Z,0
2018-08-18T00:46:23.143Z,0
2018-08-18T00:47:39.175Z,0
2018-08-18T00:48:55.073Z,0
2018-08-18T00:50:10.981Z,0
2018-08-18T00:51:26.906Z,0
2018-08-18T00:52:42.793Z,0
2018-08-18T00:53:58.696Z,0
2018-08-18T00:55:14.589Z,0
2018-08-18T00:56:30.532Z,0
2018-08-18T00:57:46.436Z,0
2018-08-18T00:59:02.302Z,0
2018-08-18T01:00:18.189Z,0
2018-08-18T01:01:34.078Z,0
2018-08-18T01:02:49.950Z,0
2018-08-18T01:04:05.840Z,0
2018-08-18T01:05:21.796Z,0
2018-08-18T01:06:37.718Z,0
2018-08-18T01:07:53.606Z,0
2018-08-18T01:09:09.514Z,0
2018-08-18T01:10:25.919Z,0
2018-08-18T01:11:42.496Z,0
2018-08-18T01:12:57.668Z,0
2018-08-18T01:14:13.519Z,0
2018-08-18T01:15:29.353Z,0
2018-08-18T01:16:45.261Z,0
2018-08-18T01:18:01.156Z,0
2018-08-18T01:19:17.052Z,0
2018-08-18T01:20:32.990Z,0
2018-08-18T01:21:48.859Z,0
2018-08-18T01:23:04.761Z,0
2018-08-18T01:24:20.668Z,0
2018-08-18T01:25:36.628Z,0
2018-08-18T01:26:52.508Z,0
2018-08-18T01:28:08.441Z,0
2018-08-18T01:29:24.320Z,0
2018-08-18T01:30:40.212Z,0
2018-08-18T01:31:56.173Z,0
2018-08-18T01:33:12.087Z,0
2018-08-18T01:34:27.986Z,0
2018-08-18T01:35:43.866Z,0
2018-08-18T01:36:59.729Z,0
2018-08-18T01:38:15.645Z,0
2018-08-18T01:41:12.123Z,0
2018-08-18T01:42:28.004Z,0
2018-08-18T01:43:44.013Z,0
2018-08-18T01:44:59.866Z,0
2018-08-18T01:46:17.706Z,0
2018-08-18T01:47:33.586Z,0
2018-08-18T01:48:49.494Z,0
2018-08-18T01:50:05.493Z,0
2018-08-18T01:51:21.404Z,0
2018-08-18T01:52:37.383Z,0
2018-08-18T01:53:53.295Z,0
2018-08-18T01:55:09.206Z,0
2018-08-18T01:56:25.078Z,0
2018-08-18T01:57:40.969Z,0
2018-08-18T01:58:56.880Z,0
2018-08-18T02:00:12.806Z,0
2018-08-18T02:01:28.655Z,0
2018-08-18T02:02:44.565Z,0
2018-08-18T02:04:01.433Z,0
2018-08-18T02:05:17.434Z,0
2018-08-18T02:06:33.303Z,0
2018-08-18T02:07:49.178Z,0
2018-08-18T02:09:05.091Z,0
2018-08-18T02:10:21.046Z,0
2018-08-18T02:11:37.017Z,0
2018-08-18T02:12:52.909Z,0
2018-08-18T02:14:08.790Z,0
2018-08-18T02:15:24.706Z,0
2018-08-18T02:16:40.626Z,0
2018-08-18T02:17:56.559Z,0
2018-08-18T02:19:12.445Z,0
2018-08-18T02:20:28.372Z,0
2018-08-18T02:21:44.298Z,0
2018-08-18T02:23:00.310Z,0
2018-08-18T02:24:16.218Z,0
2018-08-18T02:25:32.165Z,0
2018-08-18T02:26:48.082Z,0
2018-08-18T02:28:04.052Z,0
2018-08-18T02:29:19.951Z,0
2018-08-18T02:30:35.921Z,0
2018-08-18T02:31:51.801Z,0
2018-08-18T02:33:07.708Z,0
2018-08-18T02:34:23.596Z,0
2018-08-18T02:35:39.523Z,0
2018-08-18T02:36:55.420Z,0
2018-08-18T02:38:11.521Z,0
2018-08-18T02:39:27.477Z,0
2018-08-18T02:40:43.394Z,0
2018-08-18T02:41:59.278Z,0
2018-08-18T02:44:56.001Z,0
2018-08-18T02:46:11.903Z,0
2018-08-18T02:47:27.805Z,0
2018-08-18T02:48:43.730Z,0
2018-08-18T02:49:59.733Z,0
2018-08-18T02:51:15.646Z,0
2018-08-18T02:55:28.381Z,0
2018-08-18T02:56:44.290Z,0
2018-08-18T02:58:00.265Z,0
2018-08-18T02:59:16.196Z,0
2018-08-18T03:00:32.301Z,0
2018-08-18T03:01:48.211Z,0
2018-08-18T03:03:04.107Z,0
2018-08-18T03:04:20.025Z,0
2018-08-18T03:05:35.953Z,0
2018-08-18T03:06:51.868Z,0
2018-08-18T03:08:07.767Z,0
2018-08-18T03:09:23.802Z,0
2018-08-18T03:10:39.684Z,0
2018-08-18T03:11:55.679Z,0
2018-08-18T03:13:11.682Z,0
2018-08-18T03:14:27.605Z,0
2018-08-18T03:15:43.539Z,0
2018-08-18T03:16:59.432Z,0
2018-08-18T03:18:15.353Z,0
2018-08-18T03:19:31.263Z,0
2018-08-18T03:20:47.194Z,0
2018-08-18T03:22:03.107Z,0
2018-08-18T03:23:18.991Z,0
2018-08-18T03:24:34.916Z,0
2018-08-18T03:25:50.807Z,0
2018-08-18T03:27:06.750Z,0
2018-08-18T03:28:22.710Z,0
2018-08-18T03:29:38.612Z,0
2018-08-18T03:30:54.623Z,0
2018-08-18T03:32:10.507Z,0
2018-08-18T03:33:26.402Z,0
2018-08-18T03:34:42.304Z,0
2018-08-18T03:35:58.227Z,0
2018-08-18T03:37:14.999Z,0
2018-08-18T03:38:30.888Z,0
2018-08-18T03:39:46.862Z,0
2018-08-18T03:41:02.776Z,0
2018-08-18T03:42:18.684Z,0
2018-08-18T03:43:34.575Z,0
2018-08-18T03:44:50.476Z,0
2018-08-18T03:46:06.387Z,0
2018-08-18T03:47:22.330Z,0
2018-08-18T03:48:38.234Z,0
2018-08-18T08:23:57.707Z,5.625
2018-08-18T08:25:13.632Z,90
2018-08-18T08:26:29.552Z,90
2018-08-18T08:27:45.426Z,84.375
2018-08-18T08:29:01.383Z,90
2018-08-18T08:30:17.355Z,90
2018-08-18T08:31:33.348Z,90
2018-08-18T08:32:49.325Z,90
2018-08-18T08:34:05.294Z,90
2018-08-18T08:35:21.225Z,90
2018-08-18T08:36:37.726Z,90
2018-08-18T08:37:53.710Z,90
2018-08-18T08:39:09.691Z,95.625
2018-08-18T08:40:25.750Z,95.625
2018-08-18T08:41:41.679Z,95.625
2018-08-18T08:42:57.652Z,95.625
2018-08-18T08:44:14.695Z,95.625
2018-08-18T08:45:30.652Z,95.625
2018-08-18T08:46:46.596Z,95.625
2018-08-18T08:48:02.670Z,95.625
2018-08-18T08:49:19.217Z,95.625
2018-08-18T08:50:35.268Z,95.625
2018-08-18T08:51:51.242Z,95.625
2018-08-18T08:53:07.443Z,95.625
2018-08-18T08:54:23.375Z,95.625
2018-08-18T08:55:39.356Z,95.625
2018-08-18T08:56:55.336Z,95.625
2018-08-18T08:58:11.392Z,95.625
2018-08-18T08:59:27.362Z,101.25
2018-08-18T09:00:44.335Z,101.25
2018-08-18T09:02:00.301Z,101.25
2018-08-18T09:03:16.332Z,101.25
2018-08-18T09:04:32.306Z,101.25
2018-08-18T09:05:48.247Z,101.25
2018-08-18T09:07:04.846Z,101.25
2018-08-18T09:08:20.756Z,101.25
2018-08-18T09:09:36.738Z,101.25
2018-08-18T09:10:52.671Z,101.25
2018-08-18T09:12:08.634Z,101.25
2018-08-18T09:13:24.588Z,101.25
2018-08-18T09:14:40.629Z,101.25
2018-08-18T09:15:56.643Z,95.625
2018-08-18T09:17:12.608Z,101.25
2018-08-18T09:18:28.580Z,101.25
2018-08-18T09:19:44.564Z,101.25
2018-08-18T09:21:00.513Z,101.25
2018-08-18T09:22:16.517Z,101.25
2018-08-18T09:23:32.498Z,95.625
2018-08-18T09:24:48.947Z,95.625
2018-08-18T09:26:04.895Z,95.625
2018-08-18T09:27:20.874Z,95.625
2018-08-18T09:28:38.375Z,95.625
2018-08-18T09:29:55.185Z,95.625
2018-08-18T09:31:11.985Z,95.625
2018-08-18T09:32:28.625Z,95.625
2018-08-18T09:33:44.634Z,95.625
2018-08-18T09:35:00.544Z,95.625
2018-08-18T09:36:16.544Z,95.625
2018-08-18T09:37:32.457Z,95.625
2018-08-18T09:38:48.421Z,95.625
2018-08-18T09:40:04.405Z,95.625
2018-08-18T09:41:20.362Z,95.625
2018-08-18T09:42:36.282Z,95.625
2018-08-18T09:43:52.259Z,95.625
2018-08-18T09:45:08.607Z,95.625
2018-08-18T09:46:24.909Z,95.625
2018-08-18T09:47:40.944Z,101.25
2018-08-18T09:48:57.160Z,101.25
2018-08-18T09:50:13.227Z,101.25
2018-08-18T09:51:29.286Z,101.25
2018-08-18T09:52:45.575Z,101.25
2018-08-18T09:54:01.628Z,101.25
2018-08-18T09:55:17.581Z,101.25
2018-08-18T09:56:33.629Z,101.25
2018-08-18T09:57:49.625Z,95.625
2018-08-18T09:59:05.628Z,90
2018-08-18T10:00:21.724Z,101.25
2018-08-18T10:01:37.683Z,106.875
2018-08-18T10:02:53.700Z,101.25
2018-08-18T10:04:09.857Z,101.25
2018-08-18T10:05:25.836Z,101.25
2018-08-18T10:06:41.823Z,106.875
2018-08-18T10:07:57.942Z,106.875
2018-08-18T10:09:13.875Z,101.25
2018-08-18T10:10:29.873Z,101.25
2018-08-18T10:11:46.372Z,106.875
2018-08-18T10:13:03.282Z,106.875
2018-08-18T10:14:19.207Z,106.875
2018-08-18T10:15:35.108Z,106.875
2018-08-18T10:16:51.204Z,106.875
2018-08-18T10:18:07.220Z,106.875
2018-08-18T10:19:24.137Z,101.25
2018-08-18T10:20:40.213Z,101.25
2018-08-18T10:21:56.143Z,106.875
2018-08-18T10:23:12.167Z,106.875
2018-08-18T10:24:28.090Z,106.875
2018-08-18T10:25:44.038Z,106.875
2018-08-18T10:27:00.119Z,101.25
2018-08-18T10:28:16.183Z,101.25
2018-08-18T10:29:32.108Z,101.25
2018-08-18T10:30:48.037Z,101.25
2018-08-18T10:32:04.148Z,101.25
2018-08-18T10:33:20.162Z,101.25
2018-08-18T10:34:36.046Z,101.25
2018-08-18T10:35:51.972Z,101.25
2018-08-18T10:37:07.929Z,101.25
2018-08-18T10:38:23.858Z,106.875
2018-08-18T10:39:39.791Z,101.25
2018-08-18T10:40:55.758Z,101.25
2018-08-18T10:42:11.890Z,101.25
2018-08-18T10:43:27.742Z,101.25
2018-08-18T10:44:43.643Z,106.875
2018-08-18T10:45:59.518Z,106.875
2018-08-18T10:47:15.426Z,106.875
2018-08-18T10:50:11.923Z,106.875
2018-08-18T10:51:27.906Z,106.875
2018-08-18T10:52:43.798Z,106.875
2018-08-18T10:53:59.797Z,106.875
2018-08-18T10:55:15.720Z,106.875
2018-08-18T10:56:31.657Z,106.875
2018-08-18T10:57:47.564Z,106.875
2018-08-18T10:59:03.567Z,106.875
2018-08-18T11:00:19.478Z,106.875
2018-08-18T11:01:36.536Z,106.875
2018-08-18T11:02:52.489Z,106.875
2018-08-18T11:04:08.413Z,106.875
2018-08-18T11:05:24.410Z,106.875
2018-08-18T11:06:40.348Z,73.125
2018-08-18T11:07:56.254Z,106.875
2018-08-18T11:09:12.153Z,106.875
2018-08-18T11:10:28.111Z,101.25
2018-08-18T11:11:44.142Z,101.25
2018-08-18T11:13:00.037Z,101.25
2018-08-18T11:14:15.908Z,101.25
2018-08-18T11:15:31.883Z,101.25
2018-08-18T11:16:47.948Z,106.875
2018-08-18T11:18:03.842Z,106.875
2018-08-18T11:19:19.782Z,106.875
2018-08-18T11:20:35.829Z,106.875
2018-08-18T11:21:51.939Z,106.875
2018-08-18T11:23:07.858Z,106.875
2018-08-18T11:24:23.774Z,106.875
2018-08-18T11:25:39.703Z,106.875
2018-08-18T11:26:55.605Z,106.875
2018-08-18T11:28:11.575Z,106.875
2018-08-18T11:29:27.463Z,106.875
2018-08-18T11:30:44.419Z,106.875
2018-08-18T11:32:01.395Z,106.875
2018-08-18T11:33:17.543Z,106.875
2018-08-18T11:34:33.520Z,106.875
2018-08-18T11:35:49.474Z,106.875
2018-08-18T11:37:05.497Z,106.875
2018-08-18T11:38:21.466Z,106.875
2018-08-18T11:39:37.427Z,106.875
2018-08-18T11:40:53.359Z,106.875
2018-08-18T11:42:09.342Z,106.875
2018-08-18T11:43:25.310Z,106.875
2018-08-18T11:44:41.243Z,106.875
2018-08-18T11:45:57.168Z,106.875
2018-08-18T11:47:13.164Z,106.875
2018-08-18T11:48:29.152Z,106.875
2018-08-18T11:49:45.103Z,106.875
2018-08-18T11:51:01.026Z,106.875
2018-08-18T11:52:17.234Z,106.875
2018-08-18T11:53:33.218Z,106.875
2018-08-18T11:54:49.374Z,106.875
2018-08-18T11:56:05.361Z,106.875
2018-08-18T11:57:21.394Z,106.875
2018-08-18T12:00:18.282Z,106.875
2018-08-18T12:01:34.265Z,106.875
2018-08-18T12:02:50.182Z,106.875
2018-08-18T12:04:06.219Z,106.875
2018-08-18T12:05:22.169Z,106.875
2018-08-18T12:06:38.146Z,106.875
2018-08-18T12:07:54.094Z,106.875
2018-08-18T12:09:10.126Z,106.875
2018-08-18T12:10:26.325Z,106.875
2018-08-18T12:11:42.231Z,106.875
2018-08-18T12:12:58.302Z,106.875
2018-08-18T12:14:14.248Z,101.25
2018-08-18T12:15:31.180Z,101.25
2018-08-18T12:16:48.185Z,101.25
2018-08-18T12:18:05.405Z,101.25
2018-08-18T12:19:22.096Z,106.875
2018-08-18T12:20:38.281Z,101.25
2018-08-18T12:21:54.318Z,101.25
2018-08-18T12:23:10.313Z,101.25
2018-08-18T12:24:26.332Z,101.25
2018-08-18T12:25:42.417Z,101.25
2018-08-18T12:26:58.314Z,106.875
2018-08-18T12:28:14.295Z,101.25
2018-08-18T12:29:31.306Z,106.875
2018-08-18T12:30:47.269Z,106.875
2018-08-18T12:32:05.282Z,106.875
2018-08-18T12:33:21.217Z,101.25
2018-08-18T12:34:37.993Z,101.25
2018-08-18T12:35:53.991Z,101.25
2018-08-18T12:37:11.015Z,101.25
2018-08-18T12:38:26.919Z,101.25
2018-08-18T12:39:42.865Z,101.25
2018-08-18T12:40:58.779Z,101.25
2018-08-18T12:42:14.800Z,101.25
2018-08-18T12:43:30.977Z,101.25
2018-08-18T12:44:46.890Z,101.25
2018-08-18T12:46:02.864Z,101.25
2018-08-18T12:47:18.794Z,101.25
2018-08-18T12:48:34.709Z,101.25
2018-08-18T12:49:50.703Z,101.25
2018-08-18T12:51:06.656Z,101.25
2018-08-18T12:52:22.628Z,101.25
2018-08-18T12:53:38.512Z,106.875
2018-08-18T12:54:54.397Z,106.875
2018-08-18T12:56:10.359Z,106.875
2018-08-18T12:57:26.306Z,101.25
2018-08-18T12:58:42.369Z,101.25
2018-08-18T12:59:58.109Z,106.875
2018-08-18T13:01:14.135Z,106.875
2018-08-18T13:02:30.026Z,106.875
2018-08-18T13:03:45.950Z,106.875
2018-08-18T13:05:02.038Z,106.875
2018-08-18T13:06:17.982Z,106.875
2018-08-18T13:07:34.640Z,95.625
2018-08-18T13:08:50.541Z,95.625
2018-08-18T13:10:06.521Z,106.875
2018-08-18T13:11:22.458Z,101.25
2018-08-18T13:12:38.358Z,106.875
2018-08-18T13:13:54.259Z,106.875
2018-08-18T13:15:10.217Z,106.875
2018-08-18T13:16:26.207Z,106.875
2018-08-18T13:17:42.146Z,106.875
2018-08-18T13:18:58.033Z,101.25
2018-08-18T13:20:13.946Z,101.25
2018-08-18T13:21:30.085Z,106.875
2018-08-18T13:22:46.089Z,101.25
2018-08-18T13:24:02.286Z,101.25
2018-08-18T13:25:18.764Z,101.25
2018-08-18T13:26:34.896Z,101.25
2018-08-18T13:27:50.627Z,101.25
2018-08-18T13:29:06.658Z,101.25
2018-08-18T13:30:22.590Z,106.875
2018-08-18T13:31:38.475Z,101.25
2018-08-18T13:32:54.405Z,106.875
2018-08-18T13:34:10.510Z,106.875
2018-08-18T13:35:26.447Z,106.875
2018-08-18T13:36:42.355Z,101.25
2018-08-18T13:37:58.261Z,101.25
2018-08-18T13:39:14.263Z,101.25
2018-08-18T13:40:30.504Z,101.25
2018-08-18T13:41:46.360Z,101.25
2018-08-18T13:43:02.279Z,106.875
2018-08-18T13:44:18.294Z,106.875
2018-08-18T13:45:34.263Z,101.25
2018-08-18T13:46:50.293Z,101.25
2018-08-18T13:48:06.207Z,101.25
2018-08-18T13:49:22.173Z,101.25
2018-08-18T13:50:38.083Z,101.25
2018-08-18T13:51:54.081Z,101.25
2018-08-18T13:53:10.077Z,101.25
2018-08-18T13:54:26.045Z,101.25
2018-08-18T13:55:42.097Z,101.25
2018-08-18T13:56:58.034Z,101.25
2018-08-18T13:58:13.944Z,101.25
2018-08-18T13:59:30.669Z,101.25
2018-08-18T14:00:46.557Z,101.25
2018-08-18T14:02:02.480Z,101.25
2018-08-18T14:03:18.490Z,101.25
2018-08-18T14:04:34.433Z,95.625
2018-08-18T14:05:50.428Z,101.25
2018-08-18T14:07:06.379Z,101.25
2018-08-18T14:08:22.336Z,101.25
2018-08-18T14:09:38.444Z,101.25
2018-08-18T14:10:54.429Z,101.25
2018-08-18T14:12:10.375Z,101.25
2018-08-18T14:13:26.264Z,101.25
2018-08-18T14:14:42.133Z,101.25
2018-08-18T14:15:58.089Z,101.25
2018-08-18T14:17:14.044Z,101.25
2018-08-18T14:18:30.072Z,101.25
2018-08-18T14:19:46.145Z,101.25
2018-08-18T14:21:02.084Z,101.25
2018-08-18T14:22:18.013Z,101.25
2018-08-18T14:23:34.683Z,95.625
2018-08-18T14:24:50.622Z,95.625
2018-08-18T14:26:06.517Z,95.625
2018-08-18T14:27:22.446Z,95.625
2018-08-18T14:28:38.377Z,101.25
2018-08-18T14:29:54.292Z,101.25
2018-08-18T14:31:10.952Z,101.25
2018-08-18T14:32:27.099Z,101.25
2018-08-18T14:33:43.598Z,101.25
2018-08-18T14:34:59.156Z,95.625
2018-08-18T14:36:15.043Z,95.625
2018-08-18T14:37:31.011Z,95.625
2018-08-18T14:38:46.965Z,95.625
2018-08-18T14:40:02.918Z,95.625
2018-08-18T14:41:18.850Z,95.625
2018-08-18T14:42:34.770Z,101.25
2018-08-18T14:43:50.685Z,101.25
2018-08-18T14:45:06.587Z,95.625
2018-08-18T14:46:22.572Z,95.625
2018-08-18T14:47:38.448Z,95.625
2018-08-18T14:48:54.359Z,95.625
2018-08-18T14:50:10.325Z,95.625
2018-08-18T14:51:26.222Z,95.625
2018-08-18T14:52:42.259Z,95.625
2018-08-18T14:53:58.343Z,95.625
2018-08-18T14:55:14.250Z,95.625
2018-08-18T14:56:30.145Z,95.625
2018-08-18T14:57:46.083Z,95.625
2018-08-18T14:59:02.023Z,90
2018-08-18T15:00:17.916Z,95.625
2018-08-18T15:01:33.834Z,95.625
2018-08-18T15:02:49.712Z,95.625
2018-08-18T15:04:05.678Z,95.625
2018-08-18T15:05:21.593Z,95.625
2018-08-18T15:06:37.469Z,90
2018-08-18T15:07:53.383Z,95.625
2018-08-18T15:09:09.344Z,95.625
2018-08-18T15:10:25.234Z,90
2018-08-18T15:11:41.172Z,90
2018-08-18T15:12:57.067Z,90
2018-08-18T15:14:12.982Z,90
2018-08-18T15:15:28.981Z,90
2018-08-18T15:16:44.869Z,90
2018-08-18T15:18:00.771Z,90
2018-08-18T15:19:16.664Z,90
2018-08-18T15:20:32.571Z,84.375
2018-08-18T15:21:48.483Z,78.75
2018-08-18T15:23:04.416Z,78.75
2018-08-18T15:24:20.350Z,84.375
2018-08-18T15:25:36.302Z,73.125
2018-08-18T15:26:52.279Z,61.875
2018-08-18T15:28:08.186Z,84.375
2018-08-18T15:29:24.096Z,84.375
2018-08-18T15:30:40.050Z,56.25
2018-08-18T15:31:56.093Z,56.25
2018-08-18T15:33:12.082Z,56.25
2018-08-18T15:34:28.005Z,56.25
2018-08-18T15:35:43.905Z,56.25
2018-08-18T15:36:59.900Z,56.25
2018-08-18T15:38:15.820Z,56.25
2018-08-18T15:41:12.276Z,61.875
2018-08-18T15:42:28.300Z,67.5
2018-08-18T15:43:44.338Z,78.75
2018-08-18T15:45:00.285Z,78.75
2018-08-18T15:46:16.249Z,78.75
2018-08-18T15:47:32.169Z,78.75
2018-08-18T15:48:48.208Z,78.75
2018-08-18T15:50:04.108Z,78.75
2018-08-18T15:51:20.021Z,78.75
2018-08-18T15:52:35.959Z,78.75
2018-08-18T15:53:51.871Z,73.125
2018-08-18T15:55:07.762Z,73.125
2018-08-18T15:56:23.696Z,73.125
2018-08-18T15:57:39.588Z,73.125
2018-08-18T15:58:55.536Z,73.125
2018-08-18T16:00:11.424Z,73.125
2018-08-18T16:01:27.322Z,73.125
2018-08-18T16:02:43.210Z,67.5
2018-08-18T16:03:59.120Z,67.5
2018-08-18T16:05:15.034Z,67.5
2018-08-18T16:06:30.923Z,67.5
2018-08-18T16:07:46.803Z,67.5
2018-08-18T16:09:02.738Z,67.5
2018-08-18T16:10:18.707Z,67.5
2018-08-18T16:11:34.628Z,67.5
2018-08-18T16:12:50.549Z,67.5
2018-08-18T16:14:06.462Z,61.875
2018-08-18T16:15:22.442Z,61.875
2018-08-18T16:16:38.341Z,61.875
2018-08-18T16:17:54.238Z,61.875
2018-08-18T16:19:10.173Z,61.875
2018-08-18T16:20:26.058Z,61.875
2018-08-18T16:21:41.979Z,61.875
2018-08-18T16:22:57.896Z,61.875
2018-08-18T16:24:13.922Z,61.875
2018-08-18T16:25:29.718Z,56.25
2018-08-18T16:26:45.632Z,56.25
2018-08-18T16:28:01.544Z,56.25
2018-08-18T16:29:17.455Z,56.25
2018-08-18T16:30:33.401Z,56.25
2018-08-18T16:31:49.514Z,56.25
2018-08-18T16:33:05.421Z,56.25
2018-08-18T16:34:21.340Z,56.25
2018-08-18T16:35:37.288Z,56.25
2018-08-18T16:36:53.189Z,56.25
2018-08-18T16:38:09.106Z,56.25
2018-08-18T16:39:25.039Z,50.625
2018-08-18T16:40:40.969Z,50.625
2018-08-18T16:41:56.893Z,50.625
2018-08-18T16:43:12.819Z,45
2018-08-18T16:44:28.725Z,45
2018-08-18T16:45:44.621Z,45
2018-08-18T16:47:00.556Z,45
2018-08-18T16:48:16.423Z,45
2018-08-18T16:49:32.391Z,45
2018-08-18T16:50:48.298Z,39.375
2018-08-18T16:52:06.117Z,39.375
2018-08-18T16:53:21.158Z,39.375
2018-08-18T16:54:37.306Z,33.75
2018-08-18T16:55:53.266Z,33.75
2018-08-18T16:57:09.287Z,33.75
2018-08-18T16:58:25.201Z,33.75
2018-08-18T16:59:41.143Z,33.75
2018-08-18T17:00:57.103Z,33.75
2018-08-18T17:02:13.058Z,22.5
2018-08-18T17:03:28.956Z,28.125
2018-08-18T17:04:44.858Z,33.75
2018-08-18T17:06:00.753Z,22.5
2018-08-18T17:07:16.683Z,22.5
2018-08-18T17:08:32.560Z,22.5
2018-08-18T17:09:48.486Z,16.875
2018-08-18T17:11:04.437Z,16.875
2018-08-18T17:12:20.376Z,16.875
2018-08-18T17:13:36.467Z,11.25
2018-08-18T17:14:52.393Z,11.25
2018-08-18T17:16:08.275Z,11.25
2018-08-18T17:17:24.348Z,11.25
2018-08-18T17:18:40.368Z,11.25
2018-08-18T17:19:56.260Z,11.25
2018-08-18T17:21:12.220Z,11.25
2018-08-18T17:22:28.155Z,5.625
2018-08-18T17:23:44.170Z,5.625
2018-08-18T17:25:00.082Z,5.625
2018-08-18T17:26:15.991Z,5.625
2018-08-18T17:27:31.935Z,5.625
2018-08-18T17:28:47.847Z,5.625
2018-08-18T17:30:03.870Z,5.625
2018-08-18T17:31:19.730Z,5.625
2018-08-18T17:32:35.636Z,5.625
2018-08-18T17:33:51.548Z,5.625
2018-08-18T17:35:07.510Z,5.625
2018-08-18T17:36:23.437Z,5.625
2018-08-18T17:37:39.372Z,5.625
2018-08-18T17:38:55.287Z,5.625
2018-08-18T17:40:11.240Z,5.625
2018-08-18T17:41:27.189Z,5.625
2018-08-18T17:42:43.114Z,5.625
2018-08-18T17:43:59.039Z,5.625
2018-08-18T17:45:14.958Z,5.625
2018-08-18T17:46:31.624Z,5.625
2018-08-18T17:47:46.771Z,5.625
2018-08-18T17:49:02.681Z,5.625
2018-08-18T17:50:18.680Z,5.625
2018-08-18T17:51:34.630Z,5.625
2018-08-18T17:52:50.535Z,0
2018-08-18T17:54:06.461Z,0
2018-08-18T17:55:22.440Z,0
2018-08-18T17:56:38.366Z,0
2018-08-18T17:57:54.949Z,0
2018-08-18T17:59:10.852Z,0
2018-08-18T18:00:26.858Z,0
2018-08-18T18:01:42.751Z,0
2018-08-18T18:02:58.671Z,0
2018-08-18T18:04:14.608Z,0
2018-08-18T18:05:30.583Z,0
2018-08-18T18:06:46.414Z,0
2018-08-18T18:08:02.292Z,0
2018-08-18T18:09:18.258Z,0
2018-08-18T18:10:34.407Z,0
2018-08-18T18:11:50.316Z,0
2018-08-18T18:13:06.216Z,0
2018-08-18T18:14:22.127Z,0
2018-08-18T18:15:38.017Z,0
2018-08-18T18:16:54.053Z,0
2018-08-18T18:18:10.040Z,0
2018-08-18T18:19:26.053Z,0
2018-08-18T18:20:42.164Z,0
2018-08-18T18:21:58.295Z,0
2018-08-18T18:23:14.209Z,0
2018-08-18T18:24:30.130Z,0
2018-08-18T18:25:46.017Z,0
2018-08-18T18:27:01.939Z,0
2018-08-18T18:28:17.917Z,0
2018-08-18T18:29:33.841Z,0
2018-08-18T18:30:49.762Z,0
2018-08-18T18:32:05.925Z,0
2018-08-18T18:33:21.829Z,0
2018-08-18T18:34:38.495Z,0
2018-08-18T18:35:54.419Z,0
2018-08-18T18:37:10.310Z,0
2018-08-18T18:38:26.269Z,0
2018-08-18T18:39:42.228Z,0
2018-08-18T18:40:58.142Z,0
2018-08-18T18:42:14.131Z,0
2018-08-18T18:43:30.260Z,0
2018-08-18T18:44:46.205Z,0
2018-08-18T18:46:02.177Z,0
2018-08-18T18:47:18.023Z,0
2018-08-18T18:48:34.685Z,0
2018-08-18T18:49:50.579Z,0
2018-08-18T18:51:06.563Z,0
2018-08-18T18:52:22.517Z,0
2018-08-18T18:53:38.459Z,0
2018-08-18T18:54:54.370Z,0
2018-08-18T18:56:10.306Z,0
2018-08-18T18:57:26.231Z,0
2018-08-18T18:58:42.423Z,0
2018-08-18T18:59:58.426Z,0
2018-08-18T19:01:14.431Z,0
2018-08-18T19:02:30.226Z,0
2018-08-18T19:03:46.188Z,0
2018-08-18T19:05:02.068Z,0
2018-08-18T19:06:17.996Z,0
2018-08-18T19:07:33.938Z,0
2018-08-18T19:08:49.888Z,0
2018-08-18T19:10:05.900Z,0
2018-08-18T19:11:21.796Z,0
2018-08-18T19:12:37.771Z,0
2018-08-18T19:13:54.473Z,0
2018-08-18T19:15:11.363Z,0
2018-08-18T19:16:27.465Z,0
2018-08-18T19:17:43.243Z,0
2018-08-18T19:18:59.225Z,0
2018-08-18T19:20:16.037Z,0
2018-08-18T19:21:32.019Z,0
2018-08-18T19:22:47.947Z,0
2018-08-18T19:24:03.869Z,0
2018-08-18T19:25:19.809Z,0
2018-08-18T19:26:35.757Z,0
2018-08-18T19:27:52.691Z,0
2018-08-18T19:29:08.575Z,0
2018-08-18T19:30:24.527Z,0
2018-08-18T19:31:40.392Z,0
2018-08-18T19:32:56.426Z,0
2018-08-18T19:34:12.347Z,0
2018-08-18T19:35:28.310Z,0
2018-08-18T19:36:44.297Z,0
2018-08-18T19:38:00.272Z,0
2018-08-18T19:39:16.200Z,0
2018-08-18T19:40:32.106Z,0
2018-08-18T19:41:48.014Z,0
2018-08-18T19:43:03.974Z,0
2018-08-18T19:44:19.891Z,0
2018-08-18T19:45:35.827Z,0
2018-08-18T19:46:51.697Z,0
2018-08-18T19:48:07.658Z,0
2018-08-18T19:49:23.623Z,0
2018-08-18T19:50:39.582Z,0
2018-08-18T19:51:55.670Z,0
2018-08-18T19:53:11.634Z,0
2018-08-18T19:54:27.595Z,0
2018-08-18T19:55:43.505Z,0
2018-08-18T19:56:59.411Z,0
2018-08-18T19:58:15.525Z,0
2018-08-18T19:59:31.412Z,0
2018-08-18T20:00:47.391Z,0
2018-08-18T20:02:03.473Z,0
2018-08-18T20:03:19.494Z,0
2018-08-18T20:04:35.426Z,0
2018-08-18T20:05:51.345Z,0
2018-08-18T20:10:04.030Z,0
2018-08-18T20:11:20.015Z,0
2018-08-18T20:12:35.840Z,0
2018-08-18T20:13:51.756Z,0
2018-08-18T20:15:07.658Z,0
2018-08-18T20:16:23.583Z,0
2018-08-18T20:17:39.495Z,0
2018-08-18T20:18:55.418Z,0
2018-08-18T20:20:11.331Z,0
2018-08-18T20:21:27.343Z,0
2018-08-18T20:22:44.279Z,0
2018-08-18T20:24:00.179Z,0
2018-08-18T20:25:16.087Z,0
2018-08-18T20:26:32.040Z,0
2018-08-18T20:27:47.993Z,0
2018-08-18T20:29:03.934Z,0
2018-08-18T20:30:19.888Z,0
2018-08-18T20:31:35.856Z,0
2018-08-18T20:32:51.759Z,0
2018-08-18T20:34:07.671Z,0
2018-08-18T20:35:23.583Z,0
2018-08-18T20:36:39.476Z,0
2018-08-18T20:37:55.406Z,0
2018-08-18T20:39:11.457Z,0
2018-08-18T20:40:27.390Z,0
2018-08-18T20:41:43.326Z,0
2018-08-18T20:42:59.244Z,0
2018-08-18T20:44:15.168Z,0
2018-08-18T20:45:31.093Z,0
2018-08-18T20:46:47.080Z,0
2018-08-18T20:48:02.981Z,0
2018-08-18T20:49:18.927Z,0
2018-08-18T20:50:34.966Z,0
2018-08-18T20:51:50.906Z,0
2018-08-18T20:53:06.855Z,0
2018-08-18T20:54:22.779Z,0
2018-08-18T20:55:38.716Z,0
2018-08-18T20:56:54.647Z,0
2018-08-18T20:58:10.562Z,0
2018-08-18T20:59:26.488Z,0
2018-08-18T21:00:42.431Z,0
2018-08-18T21:01:58.406Z,0
2018-08-18T21:03:14.330Z,0
2018-08-18T21:04:30.244Z,0
2018-08-18T21:05:46.187Z,0
2018-08-18T21:07:02.284Z,0
2018-08-18T21:08:18.261Z,0
2018-08-18T21:09:34.216Z,0
2018-08-18T21:10:50.195Z,0
2018-08-18T21:12:06.117Z,0
2018-08-18T21:13:22.036Z,0
2018-08-18T21:14:37.985Z,0
2018-08-18T21:15:53.951Z,0
2018-08-18T21:17:09.828Z,0
2018-08-18T21:18:25.836Z,0
2018-08-18T21:19:41.771Z,0
2018-08-18T21:20:57.695Z,0
2018-08-18T21:22:13.630Z,0
2018-08-18T21:23:29.612Z,0
2018-08-18T21:24:45.576Z,0
2018-08-18T21:26:01.475Z,0
2018-08-18T21:27:17.399Z,0
2018-08-18T21:28:33.408Z,0
2018-08-18T21:29:49.385Z,0
2018-08-18T21:31:05.345Z,0
2018-08-18T21:32:21.245Z,0
2018-08-18T21:33:37.251Z,0
2018-08-18T21:34:53.285Z,0
2018-08-18T21:36:09.219Z,0
2018-08-18T21:37:25.163Z,0
2018-08-18T21:38:41.138Z,0
2018-08-18T21:39:57.052Z,0
2018-08-18T21:41:12.944Z,0
2018-08-18T21:42:28.860Z,0
2018-08-18T21:43:44.895Z,0
2018-08-18T21:45:00.840Z,0
2018-08-18T21:46:16.761Z,0
2018-08-18T21:47:32.690Z,0
2018-08-18T21:48:48.621Z,0
2018-08-18T21:50:04.572Z,0
2018-08-18T21:51:20.477Z,0
2018-08-18T21:52:37.376Z,0